sensor_id;sensor_type;location;lat;lon;timestamp;pressure;altitude;pressure_sealevel;temperature;humidity
50636;BME280;36598;46.054;11.130;2023-04-25T00:02:18;98516.00;;;11.04;59.63
50636;BME280;36598;46.054;11.130;2023-04-25T00:04:44;98520.16;;;10.96;59.59
50636;BME280;36598;46.054;11.130;2023-04-25T00:07:09;98523.59;;;11.33;59.18
50636;BME280;36598;46.054;11.130;2023-04-25T00:09:35;98521.69;;;11.29;59.34
50636;BME280;36598;46.054;11.130;2023-04-25T00:12:00;98524.22;;;11.24;59.62
50636;BME280;36598;46.054;11.130;2023-04-25T00:14:26;98528.28;;;11.19;59.01
50636;BME280;36598;46.054;11.130;2023-04-25T00:16:52;98526.44;;;11.29;58.77
50636;BME280;36598;46.054;11.130;2023-04-25T00:19:18;98529.50;;;11.18;59.47
50636;BME280;36598;46.054;11.130;2023-04-25T00:21:44;98528.16;;;10.94;59.58
50636;BME280;36598;46.054;11.130;2023-04-25T00:24:10;98532.13;;;10.93;59.59
50636;BME280;36598;46.054;11.130;2023-04-25T00:26:35;98519.91;;;11.07;59.34
50636;BME280;36598;46.054;11.130;2023-04-25T00:29:01;98522.59;;;10.94;60.15
50636;BME280;36598;46.054;11.130;2023-04-25T00:31:26;98518.91;;;10.84;59.81
50636;BME280;36598;46.054;11.130;2023-04-25T00:33:51;98516.47;;;10.86;60.01
50636;BME280;36598;46.054;11.130;2023-04-25T00:36:18;98509.78;;;11.00;59.85
50636;BME280;36598;46.054;11.130;2023-04-25T00:38:43;98506.78;;;10.94;60.48
50636;BME280;36598;46.054;11.130;2023-04-25T00:41:08;98504.78;;;10.95;60.30
50636;BME280;36598;46.054;11.130;2023-04-25T00:43:34;98508.06;;;10.73;60.92
50636;BME280;36598;46.054;11.130;2023-04-25T00:46:01;98504.63;;;10.69;61.56
50636;BME280;36598;46.054;11.130;2023-04-25T00:48:26;98502.28;;;10.84;60.98
50636;BME280;36598;46.054;11.130;2023-04-25T00:50:56;98497.00;;;10.73;60.92
50636;BME280;36598;46.054;11.130;2023-04-25T00:53:21;98493.19;;;11.00;59.50
50636;BME280;36598;46.054;11.130;2023-04-25T00:55:48;98495.03;;;10.74;59.59
50636;BME280;36598;46.054;11.130;2023-04-25T00:58:15;98503.22;;;10.77;58.79
50636;BME280;36598;46.054;11.130;2023-04-25T01:00:41;98496.84;;;10.81;58.11
50636;BME280;36598;46.054;11.130;2023-04-25T01:03:07;98508.25;;;10.83;58.30
50636;BME280;36598;46.054;11.130;2023-04-25T01:05:32;98508.06;;;10.73;58.57
50636;BME280;36598;46.054;11.130;2023-04-25T01:07:57;98502.63;;;10.70;58.13
50636;BME280;36598;46.054;11.130;2023-04-25T01:10:23;98508.16;;;10.70;58.34
50636;BME280;36598;46.054;11.130;2023-04-25T01:12:49;98501.75;;;10.40;58.93
50636;BME280;36598;46.054;11.130;2023-04-25T01:15:14;98509.97;;;10.08;58.80
50636;BME280;36598;46.054;11.130;2023-04-25T01:17:39;98507.81;;;10.15;59.40
50636;BME280;36598;46.054;11.130;2023-04-25T01:20:05;98507.81;;;10.15;59.20
50636;BME280;36598;46.054;11.130;2023-04-25T01:22:32;98501.75;;;10.40;59.17
50636;BME280;36598;46.054;11.130;2023-04-25T01:24:58;98503.59;;;10.63;59.15
50636;BME280;36598;46.054;11.130;2023-04-25T01:27:23;98497.00;;;10.90;58.05
50636;BME280;36598;46.054;11.130;2023-04-25T01:29:50;98502.28;;;10.84;58.04
50636;BME280;36598;46.054;11.130;2023-04-25T01:32:15;98499.78;;;10.90;57.29
50636;BME280;36598;46.054;11.130;2023-04-25T01:34:41;98510.25;;;10.82;57.42
50636;BME280;36598;46.054;11.130;2023-04-25T01:37:06;98501.59;;;10.80;57.07
50636;BME280;36598;46.054;11.130;2023-04-25T01:39:31;98496.69;;;10.88;57.13
50636;BME280;36598;46.054;11.130;2023-04-25T01:41:58;98509.63;;;10.91;57.41
50636;BME280;36598;46.054;11.130;2023-04-25T01:44:24;98497.69;;;10.94;57.96
50636;BME280;36598;46.054;11.130;2023-04-25T01:46:50;98493.19;;;11.00;57.34
50636;BME280;36598;46.054;11.130;2023-04-25T01:49:15;98486.78;;;11.03;57.57
50636;BME280;36598;46.054;11.130;2023-04-25T01:51:41;98490.00;;;11.01;57.33
50636;BME280;36598;46.054;11.130;2023-04-25T01:54:06;98489.47;;;10.90;57.86
50636;BME280;36598;46.054;11.130;2023-04-25T01:56:32;98488.72;;;10.73;58.00
50636;BME280;36598;46.054;11.130;2023-04-25T01:58:58;98498.22;;;10.72;57.71
50636;BME280;36598;46.054;11.130;2023-04-25T02:01:23;98496.16;;;10.76;57.60
50636;BME280;36598;46.054;11.130;2023-04-25T02:03:48;98492.78;;;10.85;57.14
50636;BME280;36598;46.054;11.130;2023-04-25T02:06:14;98493.63;;;10.98;57.33
50636;BME280;36598;46.054;11.130;2023-04-25T02:08:39;98498.72;;;11.00;55.76
50636;BME280;36598;46.054;11.130;2023-04-25T02:11:05;98501.41;;;11.03;54.92
50636;BME280;36598;46.054;11.130;2023-04-25T02:13:30;98499.06;;;11.18;54.94
50636;BME280;36598;46.054;11.130;2023-04-25T02:15:55;98487.81;;;11.09;54.06
50636;BME280;36598;46.054;11.130;2023-04-25T02:18:20;98488.94;;;11.12;53.90
50636;BME280;36598;46.054;11.130;2023-04-25T02:20:46;98493.19;;;11.00;54.90
50636;BME280;36598;46.054;11.130;2023-04-25T02:23:11;98489.63;;;11.16;55.16
50636;BME280;36598;46.054;11.130;2023-04-25T02:25:36;98492.16;;;10.61;57.50
50636;BME280;36598;46.054;11.130;2023-04-25T02:28:02;98485.78;;;10.81;57.41
50636;BME280;36598;46.054;11.130;2023-04-25T02:30:27;98485.41;;;10.95;57.37
50636;BME280;36598;46.054;11.130;2023-04-25T02:32:52;98485.78;;;10.81;57.20
50636;BME280;36598;46.054;11.130;2023-04-25T02:35:18;98481.41;;;10.96;55.87
50636;BME280;36598;46.054;11.130;2023-04-25T02:37:43;98491.47;;;10.90;54.25
50636;BME280;36598;46.054;11.130;2023-04-25T02:40:08;98481.41;;;10.96;54.01
50636;BME280;36598;46.054;11.130;2023-04-25T02:42:34;98480.97;;;11.14;53.51
50636;BME280;36598;46.054;11.130;2023-04-25T02:44:59;98476.75;;;11.09;53.88
50636;BME280;36598;46.054;11.130;2023-04-25T02:47:25;98485.06;;;11.09;53.58
50636;BME280;36598;46.054;11.130;2023-04-25T02:49:50;98477.47;;;10.97;53.58
50636;BME280;36598;46.054;11.130;2023-04-25T02:52:16;98472.84;;;11.07;53.32
50636;BME280;36598;46.054;11.130;2023-04-25T02:54:41;98466.09;;;11.08;53.46
50636;BME280;36598;46.054;11.130;2023-04-25T02:57:06;98469.66;;;10.92;54.27
50636;BME280;36598;46.054;11.130;2023-04-25T02:59:32;98470.19;;;10.70;53.53
50636;BME280;36598;46.054;11.130;2023-04-25T03:01:57;98466.59;;;10.41;53.63
50636;BME280;36598;46.054;11.130;2023-04-25T03:04:23;98464.16;;;10.75;53.52
50636;BME280;36598;46.054;11.130;2023-04-25T03:06:49;98462.94;;;10.76;54.05
50636;BME280;36598;46.054;11.130;2023-04-25T03:09:14;98461.56;;;10.68;54.67
50636;BME280;36598;46.054;11.130;2023-04-25T03:11:40;98453.19;;;10.56;53.88
50636;BME280;36598;46.054;11.130;2023-04-25T03:14:05;98449.13;;;10.60;53.57
50636;BME280;36598;46.054;11.130;2023-04-25T03:16:30;98448.78;;;10.58;53.57
50636;BME280;36598;46.054;11.130;2023-04-25T03:18:56;98434.75;;;10.82;53.04
50636;BME280;36598;46.054;11.130;2023-04-25T03:21:22;98446.72;;;10.46;52.85
50636;BME280;36598;46.054;11.130;2023-04-25T03:23:47;98444.13;;;10.55;53.07
50636;BME280;36598;46.054;11.130;2023-04-25T03:26:12;98438.06;;;10.60;53.30
50636;BME280;36598;46.054;11.130;2023-04-25T03:28:38;98441.19;;;10.62;53.61
50636;BME280;36598;46.054;11.130;2023-04-25T03:31:04;98443.50;;;10.47;53.44
50636;BME280;36598;46.054;11.130;2023-04-25T03:33:29;98448.19;;;10.50;53.10
50636;BME280;36598;46.054;11.130;2023-04-25T03:35:55;98452.06;;;10.37;53.13
50636;BME280;36598;46.054;11.130;2023-04-25T03:38:20;98459.75;;;10.45;53.73
50636;BME280;36598;46.054;11.130;2023-04-25T03:40:45;98463.47;;;10.55;53.50
50636;BME280;36598;46.054;11.130;2023-04-25T03:43:11;98460.44;;;10.33;53.98
50636;BME280;36598;46.054;11.130;2023-04-25T03:45:36;98463.41;;;10.22;53.96
50636;BME280;36598;46.054;11.130;2023-04-25T03:48:01;98458.38;;;10.01;54.69
50636;BME280;36598;46.054;11.130;2023-04-25T03:50:27;98467.94;;;9.60;56.47
50636;BME280;36598;46.054;11.130;2023-04-25T03:52:52;98471.09;;;9.59;56.46
50636;BME280;36598;46.054;11.130;2023-04-25T03:55:17;98475.66;;;9.69;56.33
50636;BME280;36598;46.054;11.130;2023-04-25T03:57:43;98473.88;;;9.78;55.08
50636;BME280;36598;46.054;11.130;2023-04-25T04:02:46;98475.19;;;9.90;53.94
50636;BME280;36598;46.054;11.130;2023-04-25T04:05:12;98482.94;;;10.15;54.28
50636;BME280;36598;46.054;11.130;2023-04-25T04:07:37;98491.56;;;10.37;54.61
50636;BME280;36598;46.054;11.130;2023-04-25T04:10:07;98502.44;;;10.44;54.38
50636;BME280;36598;46.054;11.130;2023-04-25T04:12:33;98496.06;;;10.47;55.29
50636;BME280;36598;46.054;11.130;2023-04-25T04:14:58;98495.13;;;10.54;54.42
50636;BME280;36598;46.054;11.130;2023-04-25T04:17:24;98503.84;;;10.52;54.43
50636;BME280;36598;46.054;11.130;2023-04-25T04:19:50;98508.41;;;10.43;54.47
50636;BME280;36598;46.054;11.130;2023-04-25T04:22:15;98523.13;;;10.56;54.16
50636;BME280;36598;46.054;11.130;2023-04-25T04:24:40;98524.66;;;10.57;53.86
50636;BME280;36598;46.054;11.130;2023-04-25T04:27:08;98526.41;;;10.67;53.82
50636;BME280;36598;46.054;11.130;2023-04-25T04:29:34;98522.28;;;10.75;53.09
50636;BME280;36598;46.054;11.130;2023-04-25T04:31:59;98523.66;;;10.84;52.47
50636;BME280;36598;46.054;11.130;2023-04-25T04:34:26;98525.28;;;10.81;52.04
50636;BME280;36598;46.054;11.130;2023-04-25T04:36:52;98515.00;;;10.82;51.98
50636;BME280;36598;46.054;11.130;2023-04-25T04:39:17;98507.91;;;10.97;51.93
50636;BME280;36598;46.054;11.130;2023-04-25T04:41:42;98515.59;;;11.06;52.92
50636;BME280;36598;46.054;11.130;2023-04-25T04:44:08;98522.53;;;10.97;53.71
50636;BME280;36598;46.054;11.130;2023-04-25T04:46:34;98518.63;;;10.95;54.19
50636;BME280;36598;46.054;11.130;2023-04-25T04:49:04;98529.44;;;10.89;55.59
50636;BME280;36598;46.054;11.130;2023-04-25T04:51:29;98526.75;;;11.02;55.29
50636;BME280;36598;46.054;11.130;2023-04-25T04:53:56;98534.00;;;11.12;54.79
50636;BME280;36598;46.054;11.130;2023-04-25T04:56:23;98535.56;;;10.48;55.89
50636;BME280;36598;46.054;11.130;2023-04-25T04:58:50;98547.41;;;10.65;57.37
50636;BME280;36598;46.054;11.130;2023-04-25T05:01:15;98555.59;;;9.96;59.30
50636;BME280;36598;46.054;11.130;2023-04-25T05:03:41;98561.97;;;9.93;59.36
50636;BME280;36598;46.054;11.130;2023-04-25T05:06:06;98561.97;;;9.93;59.45
50636;BME280;36598;46.054;11.130;2023-04-25T05:08:31;98564.94;;;10.02;59.10
50636;BME280;36598;46.054;11.130;2023-04-25T05:10:56;98556.84;;;10.31;57.48
50636;BME280;36598;46.054;11.130;2023-04-25T05:13:22;98556.44;;;10.33;57.36
50636;BME280;36598;46.054;11.130;2023-04-25T05:15:47;98558.34;;;10.36;56.89
50636;BME280;36598;46.054;11.130;2023-04-25T05:18:12;98553.28;;;10.50;56.96
50636;BME280;36598;46.054;11.130;2023-04-25T05:20:37;98554.16;;;10.64;57.53
50636;BME280;36598;46.054;11.130;2023-04-25T05:23:03;98545.97;;;10.76;57.09
50636;BME280;36598;46.054;11.130;2023-04-25T05:25:29;98541.66;;;10.75;56.11
50636;BME280;36598;46.054;11.130;2023-04-25T05:27:54;98547.66;;;10.70;55.71
50636;BME280;36598;46.054;11.130;2023-04-25T05:30:19;98540.50;;;10.57;55.71
50636;BME280;36598;46.054;11.130;2023-04-25T05:32:44;98552.72;;;10.75;55.04
50636;BME280;36598;46.054;11.130;2023-04-25T05:35:11;98555.13;;;10.90;54.70
50636;BME280;36598;46.054;11.130;2023-04-25T05:37:37;98560.81;;;10.83;54.68
50636;BME280;36598;46.054;11.130;2023-04-25T05:40:02;98563.34;;;10.93;54.28
50636;BME280;36598;46.054;11.130;2023-04-25T05:42:31;98571.56;;;10.97;54.09
50636;BME280;36598;46.054;11.130;2023-04-25T05:44:56;98568.34;;;10.82;54.37
50636;BME280;36598;46.054;11.130;2023-04-25T05:47:22;98563.97;;;10.32;57.58
50636;BME280;36598;46.054;11.130;2023-04-25T05:49:47;98569.56;;;10.28;57.01
50636;BME280;36598;46.054;11.130;2023-04-25T05:52:13;98562.06;;;9.89;58.97
50636;BME280;36598;46.054;11.130;2023-04-25T05:54:38;98550.66;;;10.07;58.14
50636;BME280;36598;46.054;11.130;2023-04-25T05:57:03;98550.91;;;9.93;58.63
50636;BME280;36598;46.054;11.130;2023-04-25T05:59:29;98538.56;;;10.37;57.57
50636;BME280;36598;46.054;11.130;2023-04-25T06:01:54;98530.88;;;10.28;57.47
50636;BME280;36598;46.054;11.130;2023-04-25T06:04:19;98516.19;;;10.48;56.62
50636;BME280;36598;46.054;11.130;2023-04-25T06:06:45;98522.59;;;10.61;57.82
50636;BME280;36598;46.054;11.130;2023-04-25T06:09:10;98511.84;;;10.31;57.03
50636;BME280;36598;46.054;11.130;2023-04-25T06:11:35;98508.59;;;10.52;56.34
50636;BME280;36598;46.054;11.130;2023-04-25T06:14:01;98509.22;;;10.60;56.47
50636;BME280;36598;46.054;11.130;2023-04-25T06:16:26;98508.44;;;10.59;56.58
50636;BME280;36598;46.054;11.130;2023-04-25T06:18:51;98513.59;;;10.41;56.37
50636;BME280;36598;46.054;11.130;2023-04-25T06:21:17;98515.75;;;10.66;56.55
50636;BME280;36598;46.054;11.130;2023-04-25T06:23:42;98522.50;;;10.32;57.60
50636;BME280;36598;46.054;11.130;2023-04-25T06:26:07;98519.44;;;10.26;58.93
50636;BME280;36598;46.054;11.130;2023-04-25T06:28:32;98520.50;;;10.33;58.69
50636;BME280;36598;46.054;11.130;2023-04-25T06:30:57;98513.41;;;10.32;58.67
50636;BME280;36598;46.054;11.130;2023-04-25T06:33:23;98513.66;;;10.01;59.58
50636;BME280;36598;46.054;11.130;2023-04-25T06:35:49;98516.66;;;10.63;58.45
50636;BME280;36598;46.054;11.130;2023-04-25T06:38:15;98511.00;;;10.99;57.19
50636;BME280;36598;46.054;11.130;2023-04-25T06:40:40;98504.69;;;11.15;57.98
50636;BME280;36598;46.054;11.130;2023-04-25T06:43:05;98503.81;;;11.47;57.17
50636;BME280;36598;46.054;11.130;2023-04-25T06:45:31;98497.16;;;11.44;58.61
50636;BME280;36598;46.054;11.130;2023-04-25T06:47:56;98499.28;;;11.82;56.29
50636;BME280;36598;46.054;11.130;2023-04-25T06:50:21;98491.44;;;11.93;55.12
50636;BME280;36598;46.054;11.130;2023-04-25T06:52:46;98495.78;;;12.07;55.21
50636;BME280;36598;46.054;11.130;2023-04-25T06:55:12;98491.81;;;12.21;54.93
50636;BME280;36598;46.054;11.130;2023-04-25T06:57:37;98484.03;;;12.28;54.69
50636;BME280;36598;46.054;11.130;2023-04-25T07:00:03;98479.91;;;12.71;53.59
50636;BME280;36598;46.054;11.130;2023-04-25T07:02:30;98478.41;;;13.40;51.88
50636;BME280;36598;46.054;11.130;2023-04-25T07:04:56;98472.34;;;13.54;50.70
50636;BME280;36598;46.054;11.130;2023-04-25T07:07:24;98473.03;;;13.23;49.88
50636;BME280;36598;46.054;11.130;2023-04-25T07:09:50;98470.84;;;13.40;48.34
50636;BME280;36598;46.054;11.130;2023-04-25T07:12:15;98472.03;;;13.17;48.98
50636;BME280;36598;46.054;11.130;2023-04-25T07:14:40;98476.09;;;12.91;50.23
50636;BME280;36598;46.054;11.130;2023-04-25T07:17:06;98481.25;;;13.14;50.01
50636;BME280;36598;46.054;11.130;2023-04-25T07:19:32;98486.81;;;12.41;50.51
50636;BME280;36598;46.054;11.130;2023-04-25T07:21:58;98486.81;;;12.41;51.05
50636;BME280;36598;46.054;11.130;2023-04-25T07:24:23;98484.66;;;12.84;50.60
50636;BME280;36598;46.054;11.130;2023-04-25T07:26:48;98477.47;;;12.73;51.84
50636;BME280;36598;46.054;11.130;2023-04-25T07:29:13;98475.50;;;12.48;51.75
50636;BME280;36598;46.054;11.130;2023-04-25T07:31:39;98478.94;;;12.65;51.88
50636;BME280;36598;46.054;11.130;2023-04-25T07:34:04;98470.72;;;12.62;50.70
50636;BME280;36598;46.054;11.130;2023-04-25T07:36:30;98475.00;;;12.88;49.86
50636;BME280;36598;46.054;11.130;2023-04-25T07:38:56;98472.34;;;13.19;48.50
50636;BME280;36598;46.054;11.130;2023-04-25T07:41:21;98471.97;;;12.35;50.34
50636;BME280;36598;46.054;11.130;2023-04-25T07:43:46;98471.13;;;12.86;50.14
50636;BME280;36598;46.054;11.130;2023-04-25T07:46:11;98471.75;;;13.59;47.42
50636;BME280;36598;46.054;11.130;2023-04-25T07:48:37;98467.63;;;13.42;47.80
50636;BME280;36598;46.054;11.130;2023-04-25T07:51:02;98467.28;;;13.40;48.12
50636;BME280;36598;46.054;11.130;2023-04-25T07:53:29;98465.88;;;13.79;47.47
50636;BME280;36598;46.054;11.130;2023-04-25T07:55:55;98465.47;;;13.90;46.52
50636;BME280;36598;46.054;11.130;2023-04-25T07:58:20;98461.75;;;14.55;45.61
50636;BME280;36598;46.054;11.130;2023-04-25T08:00:47;98454.22;;;14.65;45.11
50636;BME280;36598;46.054;11.130;2023-04-25T08:03:12;98452.88;;;14.97;44.84
50636;BME280;36598;46.054;11.130;2023-04-25T08:05:37;98442.25;;;14.15;44.74
50636;BME280;36598;46.054;11.130;2023-04-25T08:08:03;98449.97;;;14.11;45.29
50636;BME280;36598;46.054;11.130;2023-04-25T08:10:29;98447.88;;;14.33;45.44
50636;BME280;36598;46.054;11.130;2023-04-25T08:12:54;98449.00;;;15.03;43.61
50636;BME280;36598;46.054;11.130;2023-04-25T08:15:20;98447.91;;;14.83;43.62
50636;BME280;36598;46.054;11.130;2023-04-25T08:17:45;98436.16;;;15.43;43.37
50636;BME280;36598;46.054;11.130;2023-04-25T08:20:10;98440.19;;;15.51;42.63
50636;BME280;36598;46.054;11.130;2023-04-25T08:22:36;98433.34;;;14.88;43.55
50636;BME280;36598;46.054;11.130;2023-04-25T08:25:01;98426.69;;;15.49;41.91
50636;BME280;36598;46.054;11.130;2023-04-25T08:27:26;98425.94;;;15.31;42.62
50636;BME280;36598;46.054;11.130;2023-04-25T08:29:51;98425.91;;;15.58;41.94
50636;BME280;36598;46.054;11.130;2023-04-25T08:32:18;98428.19;;;16.30;42.28
50636;BME280;36598;46.054;11.130;2023-04-25T08:34:43;98423.78;;;15.25;42.01
50636;BME280;36598;46.054;11.130;2023-04-25T08:37:09;98430.50;;;14.60;44.22
50636;BME280;36598;46.054;11.130;2023-04-25T08:39:35;98422.22;;;15.43;42.75
50636;BME280;36598;46.054;11.130;2023-04-25T08:42:00;98422.22;;;15.34;42.91
50636;BME280;36598;46.054;11.130;2023-04-25T08:44:28;98418.66;;;16.12;41.66
50636;BME280;36598;46.054;11.130;2023-04-25T08:46:55;98419.09;;;14.76;43.64
50636;BME280;36598;46.054;11.130;2023-04-25T08:49:20;98416.03;;;16.09;43.00
50636;BME280;36598;46.054;11.130;2023-04-25T08:51:46;98410.28;;;16.69;41.81
50636;BME280;36598;46.054;11.130;2023-04-25T08:54:12;98420.88;;;16.89;40.87
50636;BME280;36598;46.054;11.130;2023-04-25T08:56:42;98408.59;;;16.96;41.51
50636;BME280;36598;46.054;11.130;2023-04-25T08:59:08;98410.97;;;17.27;41.90
50636;BME280;36598;46.054;11.130;2023-04-25T09:01:34;98403.41;;;17.87;41.05
50636;BME280;36598;46.054;11.130;2023-04-25T09:04:00;98410.03;;;17.89;41.10
50636;BME280;36598;46.054;11.130;2023-04-25T09:06:25;98402.16;;;17.88;40.37
50636;BME280;36598;46.054;11.130;2023-04-25T09:08:52;98395.66;;;17.96;40.62
50636;BME280;36598;46.054;11.130;2023-04-25T09:11:18;98395.84;;;18.08;40.05
50636;BME280;36598;46.054;11.130;2023-04-25T09:13:43;98395.22;;;18.53;39.40
50636;BME280;36598;46.054;11.130;2023-04-25T09:16:08;98387.19;;;17.91;39.76
50636;BME280;36598;46.054;11.130;2023-04-25T09:18:34;98382.06;;;17.45;39.76
50636;BME280;36598;46.054;11.130;2023-04-25T09:21:11;98385.66;;;17.07;39.87
50636;BME280;36598;46.054;11.130;2023-04-25T09:23:44;98393.03;;;17.63;38.70
50636;BME280;36598;46.054;11.130;2023-04-25T09:26:10;98383.63;;;17.75;37.56
50636;BME280;36598;46.054;11.130;2023-04-25T09:28:38;98387.34;;;17.72;37.37
50636;BME280;36598;46.054;11.130;2023-04-25T09:31:03;98382.19;;;16.73;39.02
50636;BME280;36598;46.054;11.130;2023-04-25T09:33:32;98376.66;;;16.64;39.76
50636;BME280;36598;46.054;11.130;2023-04-25T09:36:05;98377.81;;;17.35;38.48
50636;BME280;36598;46.054;11.130;2023-04-25T09:38:31;98364.31;;;17.92;38.49
50636;BME280;36598;46.054;11.130;2023-04-25T09:40:57;98364.84;;;18.46;38.46
50636;BME280;36598;46.054;11.130;2023-04-25T09:43:22;98361.72;;;18.80;37.41
50636;BME280;36598;46.054;11.130;2023-04-25T09:45:48;98361.03;;;18.85;37.75
50636;BME280;36598;46.054;11.130;2023-04-25T09:48:20;98356.88;;;19.00;37.32
50636;BME280;36598;46.054;11.130;2023-04-25T09:51:08;98342.94;;;19.32;36.77
50636;BME280;36598;46.054;11.130;2023-04-25T09:53:41;98343.91;;;18.62;36.09
50636;BME280;36598;46.054;11.130;2023-04-25T09:56:08;98343.06;;;18.97;36.01
50636;BME280;36598;46.054;11.130;2023-04-25T09:58:34;98336.75;;;18.41;36.59
50636;BME280;36598;46.054;11.130;2023-04-25T10:01:04;98332.59;;;18.16;36.97
50636;BME280;36598;46.054;11.130;2023-04-25T10:03:31;98322.75;;;18.61;36.64
50636;BME280;36598;46.054;11.130;2023-04-25T10:05:59;98318.28;;;18.29;37.70
50636;BME280;36598;46.054;11.130;2023-04-25T10:08:26;98318.56;;;18.51;37.24
50636;BME280;36598;46.054;11.130;2023-04-25T10:10:51;98312.22;;;18.97;36.95
50636;BME280;36598;46.054;11.130;2023-04-25T10:13:17;98300.97;;;19.17;35.69
50636;BME280;36598;46.054;11.130;2023-04-25T10:15:43;98297.72;;;19.24;35.05
50636;BME280;36598;46.054;11.130;2023-04-25T10:18:09;98294.94;;;19.56;35.38
50636;BME280;36598;46.054;11.130;2023-04-25T10:20:35;98292.75;;;19.66;34.19
50636;BME280;36598;46.054;11.130;2023-04-25T10:23:21;98290.56;;;19.49;34.70
50636;BME280;36598;46.054;11.130;2023-04-25T10:25:45;98292.06;;;19.19;35.12
50636;BME280;36598;46.054;11.130;2023-04-25T10:28:11;98285.19;;;19.51;34.45
50636;BME280;36598;46.054;11.130;2023-04-25T10:30:36;98280.72;;;19.34;34.45
50636;BME280;36598;46.054;11.130;2023-04-25T10:33:01;98283.53;;;18.61;36.28
50636;BME280;36598;46.054;11.130;2023-04-25T10:35:27;98278.50;;;18.24;36.38
50636;BME280;36598;46.054;11.130;2023-04-25T10:38:11;98283.63;;;18.26;36.52
50636;BME280;36598;46.054;11.130;2023-04-25T10:40:38;98274.06;;;17.47;38.61
50636;BME280;36598;46.054;11.130;2023-04-25T10:45:50;98276.44;;;18.05;38.68
50636;BME280;36598;46.054;11.130;2023-04-25T10:48:28;98285.84;;;18.22;38.62
50636;BME280;36598;46.054;11.130;2023-04-25T10:53:34;98283.78;;;17.52;38.46
50636;BME280;36598;46.054;11.130;2023-04-25T10:56:00;98286.09;;;17.53;38.43
50636;BME280;36598;46.054;11.130;2023-04-25T10:58:25;98281.19;;;17.34;38.21
50636;BME280;36598;46.054;11.130;2023-04-25T11:00:51;98272.53;;;17.02;39.56
50636;BME280;36598;46.054;11.130;2023-04-25T11:03:16;98277.03;;;16.85;39.59
50636;BME280;36598;46.054;11.130;2023-04-25T11:05:42;98268.34;;;16.83;39.75
50636;BME280;36598;46.054;11.130;2023-04-25T11:08:12;98268.75;;;16.75;39.42
50636;BME280;36598;46.054;11.130;2023-04-25T11:10:39;98272.16;;;17.09;38.95
50636;BME280;36598;46.054;11.130;2023-04-25T11:13:04;98268.63;;;17.59;38.42
50636;BME280;36598;46.054;11.130;2023-04-25T11:15:32;98272.19;;;17.59;36.96
50636;BME280;36598;46.054;11.130;2023-04-25T11:17:57;98272.53;;;17.96;36.97
50636;BME280;36598;46.054;11.130;2023-04-25T11:20:24;98261.78;;;17.74;36.26
50636;BME280;36598;46.054;11.130;2023-04-25T11:22:50;98260.81;;;17.98;36.84
50636;BME280;36598;46.054;11.130;2023-04-25T11:25:16;98250.88;;;17.76;36.56
50636;BME280;36598;46.054;11.130;2023-04-25T11:27:51;98251.47;;;18.21;35.63
50636;BME280;36598;46.054;11.130;2023-04-25T11:30:17;98244.34;;;18.20;35.79
50636;BME280;36598;46.054;11.130;2023-04-25T11:32:42;98246.75;;;18.74;35.83
50636;BME280;36598;46.054;11.130;2023-04-25T11:35:08;98239.69;;;18.58;36.92
50636;BME280;36598;46.054;11.130;2023-04-25T11:37:34;98240.47;;;18.59;36.30
50636;BME280;36598;46.054;11.130;2023-04-25T11:39:59;98224.91;;;18.78;36.04
50636;BME280;36598;46.054;11.130;2023-04-25T11:42:24;98233.03;;;18.56;36.71
50636;BME280;36598;46.054;11.130;2023-04-25T11:44:50;98225.72;;;19.10;35.66
50636;BME280;36598;46.054;11.130;2023-04-25T11:47:16;98234.53;;;18.97;35.38
50636;BME280;36598;46.054;11.130;2023-04-25T11:49:41;98230.50;;;19.04;35.09
50636;BME280;36598;46.054;11.130;2023-04-25T11:52:06;98227.03;;;19.15;35.40
50636;BME280;36598;46.054;11.130;2023-04-25T11:54:34;98227.19;;;18.80;34.35
50636;BME280;36598;46.054;11.130;2023-04-25T11:56:59;98218.66;;;19.20;33.68
50636;BME280;36598;46.054;11.130;2023-04-25T11:59:26;98219.88;;;19.14;33.23
50636;BME280;36598;46.054;11.130;2023-04-25T12:01:52;98217.66;;;19.23;30.61
50636;BME280;36598;46.054;11.130;2023-04-25T12:04:18;98215.38;;;18.96;30.18
50636;BME280;36598;46.054;11.130;2023-04-25T12:06:44;98219.94;;;19.19;30.13
50636;BME280;36598;46.054;11.130;2023-04-25T12:09:13;98217.47;;;19.01;30.35
50636;BME280;36598;46.054;11.130;2023-04-25T12:14:12;98217.59;;;18.86;30.56
50636;BME280;36598;46.054;11.130;2023-04-25T12:16:45;98215.25;;;18.59;31.86
50636;BME280;36598;46.054;11.130;2023-04-25T12:19:14;98218.88;;;18.65;31.90
50636;BME280;36598;46.054;11.130;2023-04-25T12:21:40;98222.31;;;18.54;32.07
50636;BME280;36598;46.054;11.130;2023-04-25T12:24:24;98221.56;;;18.53;32.37
50636;BME280;36598;46.054;11.130;2023-04-25T12:27:01;98229.38;;;18.03;33.43
50636;BME280;36598;46.054;11.130;2023-04-25T12:29:28;98228.66;;;18.08;33.63
50636;BME280;36598;46.054;11.130;2023-04-25T12:31:54;98230.47;;;18.11;32.92
50636;BME280;36598;46.054;11.130;2023-04-25T12:34:19;98236.16;;;18.17;33.58
50636;BME280;36598;46.054;11.130;2023-04-25T12:36:45;98235.00;;;17.88;36.39
50636;BME280;36598;46.054;11.130;2023-04-25T12:39:20;98240.56;;;18.03;37.10
50636;BME280;36598;46.054;11.130;2023-04-25T12:41:46;98238.75;;;18.20;39.25
50636;BME280;36598;46.054;11.130;2023-04-25T12:44:12;98240.59;;;17.88;40.62
50636;BME280;36598;46.054;11.130;2023-04-25T12:46:38;98242.19;;;17.74;40.41
50636;BME280;36598;46.054;11.130;2023-04-25T12:49:03;98246.84;;;17.77;40.73
50636;BME280;36598;46.054;11.130;2023-04-25T12:51:29;98257.75;;;16.87;42.74
50636;BME280;36598;46.054;11.130;2023-04-25T12:53:54;98259.75;;;16.71;38.38
50636;BME280;36598;46.054;11.130;2023-04-25T12:56:20;98271.38;;;16.31;40.32